Time;durP1;ratioP1;P1;durP2;ratioP2;P2;SDS_P1;SDS_P2;PMS_P1;PMS_P2;Temp;Humidity;BMP_temperature;BMP_pressure;BME280_temperature;BME280_humidity;BME280_pressure;Samples;Min_cycle;Max_cycle;Signal;HPM_P1;HPM_P2
2021/11/18 00:02:08;;;;;;;33.40;18.25;;;;;;;7.82;79.40;100020.69;2625499;54;20037;-68
2021/11/18 00:04:40;;;;;;;38.85;19.27;;;;;;;7.87;79.63;100020.25;2625967;54;20059;-69
2021/11/18 00:07:10;;;;;;;33.70;18.25;;;;;;;7.94;79.27;100016.88;2625946;39;20476;-69
2021/11/18 00:09:39;;;;;;;37.53;19.73;;;;;;;7.97;79.52;100018.41;2625380;54;20026;-69
2021/11/18 00:12:10;;;;;;;37.72;18.23;;;;;;;7.95;79.30;100017.72;2624534;54;20086;-69
2021/11/18 00:14:39;;;;;;;35.05;18.23;;;;;;;7.95;79.46;100022.97;2625098;54;20030;-70
2021/11/18 00:17:09;;;;;;;35.95;18.58;;;;;;;7.97;79.59;100017.59;2624951;54;20058;-69
2021/11/18 00:19:41;;;;;;;38.10;18.20;;;;;;;8.02;79.30;100020.59;2625741;54;20039;-68
2021/11/18 00:22:11;;;;;;;34.72;18.13;;;;;;;8.00;79.36;100022.53;2625801;39;20474;-68
2021/11/18 00:24:41;;;;;;;35.53;17.88;;;;;;;8.01;79.57;100024.22;2625140;54;20039;-71
2021/11/18 00:27:11;;;;;;;34.10;17.27;;;;;;;8.01;78.88;100024.22;2624995;54;20063;-68
2021/11/18 00:29:40;;;;;;;32.30;17.10;;;;;;;8.00;78.61;100019.91;2624509;54;20030;-68
2021/11/18 00:32:10;;;;;;;34.65;17.73;;;;;;;7.97;79.07;100014.94;2623490;46;20538;-68
2021/11/18 00:34:42;;;;;;;36.38;18.73;;;;;;;7.95;78.85;100021.16;2624431;54;20041;-69
2021/11/18 00:37:12;;;;;;;32.30;17.10;;;;;;;7.92;78.61;100026.75;2624296;54;20041;-69
2021/11/18 00:39:42;;;;;;;38.85;18.52;;;;;;;7.93;78.96;100022.31;2623906;54;20045;-70
2021/11/18 00:42:13;;;;;;;30.73;17.27;;;;;;;7.92;79.11;100018.03;2621187;47;20055;-68
2021/11/18 00:44:42;;;;;;;29.95;16.88;;;;;;;7.86;79.15;100015.97;2619916;54;20580;-67
2021/11/18 00:47:12;;;;;;;33.05;17.90;;;;;;;7.88;79.17;100016.66;2620313;47;20042;-69
2021/11/18 00:49:46;;;;;;;32.20;17.02;;;;;;;7.91;78.96;100006.63;2623598;54;20117;-68
2021/11/18 00:52:15;;;;;;;31.17;17.95;;;;;;;7.88;78.69;100006.94;2619664;54;20030;-68
2021/11/18 00:54:45;;;;;;;32.40;17.52;;;;;;;7.81;78.95;100012.94;2619564;39;20449;-69
2021/11/18 00:57:14;;;;;;;30.23;16.55;;;;;;;7.80;79.12;100024.44;2619967;54;20175;-68
2021/11/18 00:59:47;;;;;;;28.85;16.50;;;;;;;7.77;78.86;100025.56;2618337;47;20562;-68
2021/11/18 01:02:18;;;;;;;31.50;17.15;;;;;;;7.72;79.19;100032.25;2618967;54;20047;-68
2021/11/18 01:04:51;;;;;;;32.47;17.13;;;;;;;7.67;78.96;100022.97;2619807;39;20090;-68
2021/11/18 01:07:21;;;;;;;31.55;16.63;;;;;;;7.58;78.48;100026.44;2623148;54;20045;-68
2021/11/18 01:09:50;;;;;;;32.50;16.35;;;;;;;7.57;78.74;100014.28;2626604;39;20516;-69
2021/11/18 01:12:20;;;;;;;32.53;17.88;;;;;;;7.54;79.06;100017.19;2625516;54;20026;-67
2021/11/18 01:14:49;;;;;;;31.95;16.60;;;;;;;7.48;78.97;100030.94;2625976;47;20034;-67
2021/11/18 01:17:20;;;;;;;30.63;15.82;;;;;;;7.44;79.56;100042.72;2625646;54;20038;-66
2021/11/18 01:19:52;;;;;;;34.63;17.10;;;;;;;7.51;79.25;100041.16;2625030;54;20022;-67
2021/11/18 01:22:22;;;;;;;30.67;17.40;;;;;;;7.53;79.43;100049.75;2623931;47;20027;-68
2021/11/18 01:24:53;;;;;;;34.03;18.27;;;;;;;7.43;79.12;100049.78;2624001;54;20082;-67
2021/11/18 01:27:26;;;;;;;32.70;17.93;;;;;;;7.35;79.37;100051.44;2624751;54;20050;-68
2021/11/18 01:30:11;;;;;;;36.42;18.05;;;;;;;7.29;79.77;100055.47;2623963;54;20019;-68
2021/11/18 01:32:42;;;;;;;30.90;16.80;;;;;;;7.24;79.70;100057.69;2622780;47;20030;-68
2021/11/18 01:35:14;;;;;;;28.88;16.35;;;;;;;7.31;80.08;100045.63;2624271;47;20045;-68
2021/11/18 01:37:44;;;;;;;31.70;16.92;;;;;;;7.36;80.56;100048.66;2624565;47;20022;-68
2021/11/18 01:40:20;;;;;;;30.33;17.92;;;;;;;7.42;80.49;100047.25;2623688;46;20026;-68
2021/11/18 01:42:55;;;;;;;32.13;18.75;;;;;;;7.42;79.92;100057.78;2623333;54;20027;-69
2021/11/18 01:45:27;;;;;;;33.60;17.70;;;;;;;7.34;80.04;100055.03;2623631;47;20031;-67
2021/11/18 01:47:57;;;;;;;35.67;17.98;;;;;;;7.27;79.93;100052.16;2622779;54;20071;-66
2021/11/18 01:50:34;;;;;;;34.35;18.38;;;;;;;7.27;80.28;100049.53;2623685;54;20126;-68
2021/11/18 01:53:08;;;;;;;34.05;18.23;;;;;;;7.26;80.16;100055.72;2623771;47;20022;-68
2021/11/18 01:55:42;;;;;;;27.88;15.93;;;;;;;7.29;80.62;100057.25;2624013;54;20018;-68
2021/11/18 01:58:13;;;;;;;30.95;17.33;;;;;;;7.28;80.33;100058.25;2624102;47;20038;-68
2021/11/18 02:01:18;;;;;;;34.40;18.30;;;;;;;7.21;80.70;100063.22;2623739;54;20060;-67
2021/11/18 02:03:49;;;;;;;33.88;17.48;;;;;;;7.19;80.89;100062.53;2624884;51;20065;-67
2021/11/18 02:06:37;;;;;;;31.38;17.80;;;;;;;7.24;81.07;100051.59;2623647;47;20026;-67
2021/11/18 02:09:14;;;;;;;30.42;15.75;;;;;;;7.34;80.77;100060.28;2623951;54;20026;-68
2021/11/18 02:11:47;;;;;;;31.77;17.25;;;;;;;7.45;80.80;100068.88;2623408;47;20033;-68
2021/11/18 02:14:19;;;;;;;32.30;16.35;;;;;;;7.52;80.84;100076.19;2623849;54;20090;-68
2021/11/18 02:16:50;;;;;;;33.50;18.85;;;;;;;7.49;80.44;100085.19;2623571;47;20041;-68
2021/11/18 02:19:21;;;;;;;33.10;17.17;;;;;;;7.43;80.68;100086.59;2623488;47;20018;-68
2021/11/18 02:21:55;;;;;;;31.85;17.00;;;;;;;7.43;80.49;100085.78;2622785;47;20034;-68
2021/11/18 02:24:29;;;;;;;33.50;17.63;;;;;;;7.43;80.25;100089.25;2621003;54;20049;-68
2021/11/18 02:27:05;;;;;;;32.05;16.98;;;;;;;7.40;80.78;100088.69;2620955;54;20133;-68
2021/11/18 02:29:35;;;;;;;30.50;17.67;;;;;;;7.44;80.54;100097.94;2622993;54;20035;-68
2021/11/18 02:32:09;;;;;;;31.58;17.02;;;;;;;7.44;80.37;100090.88;2622546;47;20027;-68
2021/11/18 02:34:53;;;;;;;33.53;16.40;;;;;;;7.47;80.84;100094.19;2623392;54;20027;-68
2021/11/18 02:37:25;;;;;;;29.98;16.35;;;;;;;7.57;80.67;100087.94;2624176;54;20031;-67
2021/11/18 02:39:56;;;;;;;30.13;16.05;;;;;;;7.64;80.70;100082.97;2623855;47;20058;-67
2021/11/18 02:42:27;;;;;;;31.98;16.80;;;;;;;7.69;80.54;100086.00;2625294;47;20034;-68
2021/11/18 02:44:57;;;;;;;30.10;15.40;;;;;;;7.69;80.15;100088.63;2625409;54;20029;-67
2021/11/18 02:47:27;;;;;;;29.05;15.98;;;;;;;7.74;80.39;100088.19;2625419;47;20034;-67
2021/11/18 02:49:58;;;;;;;30.45;16.02;;;;;;;7.77;80.15;100087.91;2625395;47;20030;-67
2021/11/18 02:52:33;;;;;;;30.20;16.70;;;;;;;7.80;80.10;100093.72;2625276;39;20430;-67
2021/11/18 02:55:08;;;;;;;26.35;15.77;;;;;;;7.67;79.43;100104.56;2625899;47;20534;-67
2021/11/18 02:57:38;;;;;;;31.90;16.38;;;;;;;7.64;79.75;100094.31;2625686;54;20034;-67
2021/11/18 03:00:12;;;;;;;29.15;16.15;;;;;;;7.69;80.26;100083.34;2625856;54;20608;-67
2021/11/18 03:02:42;;;;;;;34.72;17.70;;;;;;;7.74;79.64;100082.94;2626123;54;20655;-68
2021/11/18 03:05:13;;;;;;;26.48;16.10;;;;;;;7.80;79.67;100090.25;2625527;47;20030;-67
2021/11/18 03:07:46;;;;;;;26.58;15.52;;;;;;;7.82;79.25;100080.41;2625832;39;20493;-67
2021/11/18 03:10:18;;;;;;;29.17;15.85;;;;;;;7.78;79.19;100082.50;2623232;54;20546;-68
2021/11/18 03:12:48;;;;;;;27.85;15.90;;;;;;;7.76;79.65;100084.44;2624109;54;20037;-67
2021/11/18 03:15:18;;;;;;;28.13;15.50;;;;;;;7.72;79.45;100084.88;2624623;51;20051;-67
2021/11/18 03:17:47;;;;;;;29.52;15.32;;;;;;;7.67;79.27;100093.19;2624286;54;20507;-67
2021/11/18 03:20:27;;;;;;;27.42;16.15;;;;;;;7.65;79.76;100084.63;2623825;54;20082;-67
2021/11/18 03:22:59;;;;;;;27.27;16.45;;;;;;;7.64;79.34;100077.69;2623831;47;20037;-67
2021/11/18 03:25:31;;;;;;;29.23;16.05;;;;;;;7.60;79.70;100082.41;2624121;47;20035;-68
2021/11/18 03:28:09;;;;;;;30.35;17.00;;;;;;;7.57;79.36;100095.03;2624030;54;20078;-69
2021/11/18 03:30:42;;;;;;;27.77;16.10;;;;;;;7.60;79.63;100111.38;2624065;54;20090;-69
2021/11/18 03:33:17;;;;;;;31.08;17.00;;;;;;;7.57;79.30;100118.69;2624947;39;20434;-68
2021/11/18 03:35:47;;;;;;;27.65;15.75;;;;;;;7.51;79.48;100117.47;2624426;54;20033;-68
2021/11/18 03:38:20;;;;;;;28.10;15.25;;;;;;;7.50;79.68;100122.88;2624124;54;20026;-67
2021/11/18 03:41:04;;;;;;;31.25;15.95;;;;;;;7.44;79.46;100111.94;2624063;47;20027;-67
2021/11/18 03:43:42;;;;;;;27.85;15.60;;;;;;;7.45;79.70;100120.66;2623731;54;20078;-66
2021/11/18 03:46:15;;;;;;;27.73;15.65;;;;;;;7.42;79.31;100118.28;2623826;54;20026;-67
2021/11/18 03:48:45;;;;;;;30.48;16.45;;;;;;;7.39;79.75;100115.97;2623657;47;20026;-67
2021/11/18 03:51:16;;;;;;;31.05;17.65;;;;;;;7.30;79.44;100120.25;2622733;54;20030;-67
2021/11/18 03:53:49;;;;;;;27.17;16.10;;;;;;;7.16;79.44;100120.69;2623936;47;20034;-69
2021/11/18 03:56:22;;;;;;;34.05;16.85;;;;;;;7.02;79.51;100114.03;2625793;39;20452;-67
2021/11/18 03:58:51;;;;;;;30.67;15.70;;;;;;;6.95;80.00;100120.81;2625017;54;20022;-67
2021/11/18 04:01:22;;;;;;;28.33;16.20;;;;;;;6.99;80.50;100108.22;2624444;51;20037;-70
2021/11/18 04:03:54;;;;;;;28.52;15.55;;;;;;;7.02;80.25;100114.03;2624586;47;20082;-72
2021/11/18 04:06:25;;;;;;;24.95;14.13;;;;;;;7.07;79.89;100111.00;2624078;54;20042;-67
2021/11/18 04:09:03;;;;;;;26.77;15.65;;;;;;;7.08;80.05;100110.84;2624265;54;20030;-67
2021/11/18 04:11:33;;;;;;;30.38;15.95;;;;;;;7.08;79.90;100113.47;2623663;46;20038;-71
2021/11/18 04:14:06;;;;;;;31.20;17.83;;;;;;;7.03;79.43;100125.38;2623909;54;20041;-67
2021/11/18 04:16:36;;;;;;;31.75;16.02;;;;;;;6.91;79.34;100130.75;2624232;54;20057;-67
2021/11/18 04:19:12;;;;;;;29.83;16.70;;;;;;;6.75;79.84;100125.19;2623681;47;20037;-68
2021/11/18 04:21:45;;;;;;;25.63;14.88;;;;;;;6.75;80.66;100129.63;2623985;54;20641;-67
2021/11/18 04:24:20;;;;;;;30.38;16.50;;;;;;;6.78;80.32;100124.13;2624695;54;20038;-71
2021/11/18 04:26:50;;;;;;;25.92;15.35;;;;;;;6.77;79.95;100131.13;2624663;47;20023;-67
2021/11/18 04:29:27;;;;;;;28.25;15.60;;;;;;;6.71;80.11;100136.94;2624962;54;20022;-68
2021/11/18 04:32:03;;;;;;;27.38;15.73;;;;;;;6.69;79.90;100126.59;2625045;54;20035;-68
2021/11/18 04:34:33;;;;;;;29.25;16.27;;;;;;;6.70;79.74;100128.25;2625004;54;20043;-69
2021/11/18 04:37:03;;;;;;;22.48;13.63;;;;;;;6.70;80.17;100141.38;2625198;39;20438;-68
2021/11/18 04:39:36;;;;;;;31.75;16.20;;;;;;;6.68;80.05;100145.94;2625238;51;20035;-67
2021/11/18 04:42:08;;;;;;;30.27;16.50;;;;;;;6.63;79.95;100145.50;2625505;54;20030;-67
2021/11/18 04:44:42;;;;;;;42.67;26.23;;;;;;;6.60;79.90;100148.41;2624924;54;20086;-67
2021/11/18 04:47:13;;;;;;;26.83;16.38;;;;;;;6.55;79.84;100149.78;2625381;54;20042;-67
2021/11/18 04:49:49;;;;;;;27.20;15.98;;;;;;;6.43;80.16;100149.03;2625802;54;20034;-68
2021/11/18 04:52:23;;;;;;;32.47;16.70;;;;;;;6.26;80.13;100165.44;2625582;54;20050;-68
2021/11/18 04:54:56;;;;;;;33.72;17.02;;;;;;;6.09;80.73;100156.38;2625350;52;20022;-67
2021/11/18 04:57:28;;;;;;;28.42;15.57;;;;;;;6.02;80.76;100161.28;2625780;54;20045;-68
2021/11/18 04:59:59;;;;;;;29.90;16.48;;;;;;;6.05;81.07;100158.41;2622124;47;20035;-67
2021/11/18 05:02:30;;;;;;;28.00;15.18;;;;;;;6.09;81.30;100151.13;2624011;54;20026;-67
2021/11/18 05:05:00;;;;;;;31.20;16.17;;;;;;;6.10;80.84;100158.03;2622912;47;20035;-68
2021/11/18 05:07:30;;;;;;;29.80;16.20;;;;;;;6.04;80.54;100148.88;2618682;54;20030;-67
2021/11/18 05:10:05;;;;;;;29.25;15.05;;;;;;;5.97;81.10;100154.78;2618975;46;20105;-67
2021/11/18 05:12:35;;;;;;;30.27;17.23;;;;;;;5.87;80.56;100160.75;2624296;54;20155;-67
2021/11/18 05:15:06;;;;;;;26.98;15.43;;;;;;;5.80;80.81;100169.31;2623722;47;20287;-69
2021/11/18 05:17:35;;;;;;;28.05;15.75;;;;;;;5.71;81.30;100166.50;2624060;54;20038;-67
2021/11/18 05:20:07;;;;;;;29.83;14.85;;;;;;;5.68;81.45;100169.34;2623798;51;20034;-67
2021/11/18 05:22:37;;;;;;;26.95;16.23;;;;;;;5.76;81.54;100168.72;2624317;54;20038;-69
2021/11/18 05:25:10;;;;;;;34.15;19.75;;;;;;;5.83;81.48;100159.34;2625092;39;20446;-68
2021/11/18 05:27:40;;;;;;;27.25;16.05;;;;;;;5.87;81.51;100162.56;2624576;54;20030;-67
2021/11/18 05:30:12;;;;;;;35.55;16.88;;;;;;;5.88;81.41;100166.88;2624365;47;20026;-67
2021/11/18 05:32:43;;;;;;;26.90;15.10;;;;;;;5.88;81.20;100172.94;2623475;54;20038;-67
2021/11/18 05:35:26;;;;;;;26.38;14.50;;;;;;;5.90;80.92;100173.63;2623689;54;20545;-66
2021/11/18 05:37:56;;;;;;;29.98;15.23;;;;;;;5.94;81.04;100166.38;2623664;47;20038;-67
2021/11/18 05:40:29;;;;;;;25.88;15.23;;;;;;;5.90;80.37;100168.38;2624030;47;20030;-68
2021/11/18 05:43:00;;;;;;;24.93;14.73;;;;;;;5.78;80.28;100177.28;2624119;54;20030;-68
2021/11/18 05:45:33;;;;;;;23.90;15.93;;;;;;;5.85;80.57;100175.00;2624398;54;20055;-69
2021/11/18 05:48:17;;;;;;;24.67;15.38;;;;;;;5.91;80.90;100177.09;2624855;54;20126;-68
2021/11/18 05:50:50;;;;;;;32.85;18.45;;;;;;;5.99;80.88;100179.09;2624594;47;20047;-66
2021/11/18 05:53:26;;;;;;;27.80;16.10;;;;;;;6.05;80.34;100182.03;2623186;47;20023;-66
2021/11/18 05:56:00;;;;;;;27.35;16.17;;;;;;;6.09;80.67;100175.56;2621367;54;20030;-68
2021/11/18 05:58:32;;;;;;;34.03;20.33;;;;;;;6.12;80.15;100185.81;2624269;39;20684;-67
2021/11/18 06:01:04;;;;;;;34.20;18.38;;;;;;;6.13;80.43;100184.84;2624076;47;20027;-67
2021/11/18 06:03:36;;;;;;;30.02;17.00;;;;;;;6.17;80.52;100188.06;2624541;54;20026;-68
2021/11/18 06:06:10;;;;;;;34.42;17.77;;;;;;;6.18;80.24;100180.03;2622255;54;20034;-67
2021/11/18 06:08:40;;;;;;;33.08;17.98;;;;;;;6.14;80.56;100181.25;2621864;54;20554;-68
2021/11/18 06:11:16;;;;;;;32.45;17.85;;;;;;;6.16;80.05;100189.00;2622265;54;20538;-67
2021/11/18 06:13:52;;;;;;;35.47;18.30;;;;;;;6.22;80.44;100185.88;2622289;47;20041;-69
2021/11/18 06:16:26;;;;;;;30.67;17.08;;;;;;;6.28;80.53;100182.69;2622785;54;20040;-67
2021/11/18 06:18:58;;;;;;;30.65;17.70;;;;;;;6.28;80.27;100187.94;2621447;47;20027;-67
2021/11/18 06:21:31;;;;;;;28.40;16.10;;;;;;;6.25;80.18;100195.28;2622577;51;20062;-67
2021/11/18 06:24:01;;;;;;;28.83;17.08;;;;;;;6.26;80.32;100194.31;2624663;54;20041;-67
2021/11/18 06:26:34;;;;;;;27.60;16.23;;;;;;;6.27;79.97;100188.09;2625343;50;20026;-67
2021/11/18 06:29:07;;;;;;;29.67;16.15;;;;;;;6.28;79.86;100185.31;2625113;54;20037;-69
2021/11/18 06:31:37;;;;;;;32.17;17.95;;;;;;;6.26;79.42;100183.81;2624957;54;20046;-70
2021/11/18 06:34:07;;;;;;;27.98;17.45;;;;;;;6.25;79.99;100182.97;2623911;54;20030;-68
2021/11/18 06:36:37;;;;;;;36.20;18.65;;;;;;;6.23;79.80;100190.16;2624601;47;20044;-67
2021/11/18 06:39:08;;;;;;;33.65;17.33;;;;;;;6.21;79.79;100194.72;2624335;54;20026;-70
2021/11/18 06:41:45;;;;;;;30.60;17.10;;;;;;;6.21;79.49;100189.47;2624438;54;20062;-69
2021/11/18 06:44:15;;;;;;;29.27;16.77;;;;;;;6.18;79.93;100192.34;2624072;54;20027;-69
2021/11/18 06:46:45;;;;;;;27.15;16.65;;;;;;;6.18;79.78;100198.41;2623676;46;20551;-69
2021/11/18 06:49:15;;;;;;;28.30;15.57;;;;;;;6.17;79.57;100198.56;2624305;51;20030;-69
2021/11/18 06:51:46;;;;;;;26.20;15.10;;;;;;;6.15;79.34;100203.09;2624519;54;20034;-70
2021/11/18 06:54:18;;;;;;;30.08;15.95;;;;;;;6.18;79.59;100205.47;2623969;54;20122;-69
2021/11/18 06:56:51;;;;;;;29.27;16.73;;;;;;;6.22;79.28;100206.03;2622774;54;20030;-71
2021/11/18 06:59:22;;;;;;;25.65;15.93;;;;;;;6.15;79.47;100214.41;2624388;54;20034;-69
2021/11/18 07:01:55;;;;;;;28.85;17.42;;;;;;;6.10;79.60;100221.03;2624110;47;20030;-68
2021/11/18 07:04:27;;;;;;;27.88;15.82;;;;;;;6.12;79.78;100229.59;2624158;47;20058;-70
2021/11/18 07:06:57;;;;;;;28.58;17.98;;;;;;;6.08;79.61;100241.31;2624076;39;20400;-68
2021/11/18 07:54:24;;;;;;;35.85;16.95;;;;;;;6.17;79.43;100287.84;2619500;39;20449;-68
2021/11/18 07:56:54;;;;;;;33.70;17.02;;;;;;;6.20;80.12;100285.78;2617538;54;20026;-68
2021/11/18 07:59:26;;;;;;;35.28;17.98;;;;;;;6.33;80.29;100287.38;2617623;54;20022;-68
2021/11/18 08:01:58;;;;;;;28.45;16.08;;;;;;;6.48;80.37;100283.44;2617703;54;20039;-68
2021/11/18 08:04:29;;;;;;;26.17;16.40;;;;;;;6.57;79.90;100290.56;2617635;54;20030;-68
2021/11/18 08:07:03;;;;;;;28.85;16.58;;;;;;;6.60;79.80;100287.66;2617559;54;20082;-68
2021/11/18 08:09:36;;;;;;;33.28;17.75;;;;;;;6.65;79.76;100289.88;2617997;39;20405;-69
2021/11/18 08:12:07;;;;;;;34.05;18.02;;;;;;;6.73;79.50;100291.88;2617282;47;20034;-68
2021/11/18 08:14:38;;;;;;;29.50;17.65;;;;;;;6.78;79.42;100289.69;2617352;47;20027;-69
2021/11/18 08:17:07;;;;;;;32.47;17.83;;;;;;;6.85;79.07;100290.81;2617560;47;20030;-69
2021/11/18 08:19:37;;;;;;;34.25;18.60;;;;;;;6.89;78.92;100302.72;2617443;47;20573;-69
2021/11/18 08:22:14;;;;;;;33.13;18.70;;;;;;;6.84;78.62;100303.13;2617264;47;20033;-69
2021/11/18 08:24:47;;;;;;;32.60;17.40;;;;;;;6.79;78.81;100301.88;2617303;47;20030;-68
2021/11/18 08:27:17;;;;;;;31.83;17.85;;;;;;;6.84;78.66;100303.13;2617361;54;20035;-69
2021/11/18 08:29:47;;;;;;;33.50;17.70;;;;;;;6.89;79.04;100295.66;2618030;54;20046;-68
2021/11/18 08:32:17;;;;;;;31.77;17.92;;;;;;;6.99;79.28;100300.16;2617379;46;20191;-69
2021/11/18 08:34:50;;;;;;;35.55;20.58;;;;;;;7.06;78.50;100302.13;2617414;47;20027;-69
2021/11/18 08:37:21;;;;;;;33.42;18.45;;;;;;;7.05;78.77;100304.88;2617385;54;20030;-70
2021/11/18 08:39:55;;;;;;;35.20;19.52;;;;;;;7.00;78.78;100302.63;2618892;31;20550;-69
2021/11/18 08:42:28;;;;;;;37.17;20.25;;;;;;;6.98;78.74;100315.09;2617093;54;20565;-69
2021/11/18 08:45:05;;;;;;;31.23;18.40;;;;;;;6.96;78.41;100311.75;2618168;46;20027;-69
2021/11/18 08:47:36;;;;;;;36.00;18.25;;;;;;;6.97;79.06;100305.53;2618048;39;20454;-69
2021/11/18 08:50:09;;;;;;;34.13;19.15;;;;;;;7.08;79.53;100307.22;2618461;47;20050;-68
2021/11/18 08:52:40;;;;;;;36.00;20.15;;;;;;;7.06;79.16;100306.53;2617862;47;20071;-68
2021/11/18 08:55:19;;;;;;;35.75;19.92;;;;;;;7.11;78.59;100310.44;2617915;54;20565;-67
2021/11/18 08:57:53;;;;;;;40.15;22.13;;;;;;;7.03;79.34;100322.59;2618474;39;20421;-66
2021/11/18 09:00:46;;;;;;;35.65;19.33;;;;;;;7.08;79.19;100308.06;2618332;54;20027;-67
2021/11/18 09:03:23;;;;;;;;;;;;;;;7.27;79.20;100312.56;2618267;54;20037;-67
2021/11/18 09:05:55;;;;;;;35.08;20.42;;;;;;;7.39;79.11;100315.91;2618015;49;19954;-69
2021/11/18 09:08:27;;;;;;;38.03;20.73;;;;;;;7.59;79.43;100317.63;2618165;47;20034;-67
2021/11/18 09:11:09;;;;;;;39.88;20.15;;;;;;;7.74;78.94;100317.19;2618009;54;20197;-67
2021/11/18 09:13:46;;;;;;;34.22;19.70;;;;;;;7.78;78.75;100324.69;2618078;54;20041;-66
2021/11/18 09:16:16;;;;;;;36.95;20.92;;;;;;;7.82;79.00;100314.72;2618052;54;20030;-66
2021/11/18 09:18:58;;;;;;;30.35;18.90;;;;;;;7.92;78.86;100316.38;2618087;47;20049;-70
2021/11/18 09:21:29;;;;;;;35.38;19.60;;;;;;;8.03;78.88;100318.03;2617870;54;20037;-69
2021/11/18 09:24:02;;;;;;;40.50;19.33;;;;;;;8.08;78.72;100331.66;2617876;54;20111;-69
2021/11/18 09:26:38;;;;;;;34.60;20.53;;;;;;;8.06;78.23;100330.94;2618256;39;20434;-69
2021/11/18 09:29:09;;;;;;;38.15;22.63;;;;;;;8.03;78.34;100333.00;2617996;54;20324;-69
2021/11/18 09:32:01;;;;;;;33.70;20.08;;;;;;;8.11;78.47;100326.06;2618330;54;20065;-68
2021/11/18 09:34:31;;;;;;;36.10;20.55;;;;;;;8.14;78.30;100340.78;2621596;54;20034;-68
2021/11/18 09:37:01;;;;;;;33.83;19.55;;;;;;;8.08;78.48;100344.81;2626753;47;20122;-68
2021/11/18 09:39:30;;;;;;;34.63;20.58;;;;;;;8.11;78.34;100346.31;2627518;54;20023;-68
2021/11/18 09:42:15;;;;;;;40.20;21.25;;;;;;;8.12;78.46;100345.34;2624772;39;20494;-67
2021/11/18 09:44:57;;;;;;;38.60;20.40;;;;;;;8.16;78.58;100344.09;2622657;54;20022;-67
2021/11/18 09:48:00;;;;;;;37.35;21.23;;;;;;;8.27;78.58;100346.59;2622854;54;20081;-71
2021/11/18 09:50:44;;;;;;;32.65;19.73;;;;;;;8.37;78.18;100339.53;2619669;39;20422;-69
2021/11/18 09:53:27;;;;;;;43.95;22.45;;;;;;;8.38;77.72;100343.84;2618845;47;20034;-70
2021/11/18 09:56:09;;;;;;;;;;;;;;;8.43;77.77;100344.25;2618386;47;20041;-69
2021/11/18 09:58:57;;;;;;;36.70;19.23;;;;;;;8.53;77.04;100341.59;2618505;51;20054;-69
2021/11/18 10:01:42;;;;;;;36.08;20.90;;;;;;;8.65;77.03;100332.56;2619919;39;20509;-69
2021/11/18 10:04:27;;;;;;;36.97;21.17;;;;;;;8.83;77.18;100337.91;2624750;39;20470;-69
2021/11/18 10:06:58;;;;;;;;;;;;;;;8.89;76.44;100333.84;2622702;54;20030;-69
2021/11/18 10:09:33;;;;;;;35.90;20.63;;;;;;;8.96;76.22;100328.84;2622469;54;19946;-68
2021/11/18 10:12:09;;;;;;;34.45;20.75;;;;;;;9.03;76.68;100322.84;2622955;39;20093;-69
2021/11/18 10:14:58;;;;;;;38.00;20.90;;;;;;;9.04;75.61;100324.50;2622807;46;20244;-69
2021/11/18 10:17:33;;;;;;;38.42;21.33;;;;;;;8.98;75.90;100321.59;2622191;54;20019;-69
2021/11/18 10:20:26;;;;;;;32.85;20.70;;;;;;;8.92;75.66;100315.94;2621340;54;20557;-69
2021/11/18 10:22:59;;;;;;;39.95;20.90;;;;;;;8.96;75.67;100324.41;2622181;39;20450;-69
2021/11/18 10:25:32;;;;;;;35.38;20.70;;;;;;;9.00;74.89;100306.47;2620905;54;20041;-68
2021/11/18 10:28:23;;;;;;;33.08;19.67;;;;;;;9.02;73.98;100308.00;2620246;54;20030;-69
2021/11/18 10:31:14;;;;;;;31.52;19.48;;;;;;;9.03;73.97;100309.66;2620033;39;20332;-69
2021/11/18 10:33:48;;;;;;;33.20;19.98;;;;;;;9.18;74.03;100313.47;2624921;54;20037;-69
2021/11/18 10:36:24;;;;;;;33.53;18.02;;;;;;;9.26;74.08;100302.16;2625980;54;20058;-69
2021/11/18 10:39:03;;;;;;;33.90;19.75;;;;;;;9.34;73.86;100310.19;2626235;54;20030;-68
2021/11/18 10:41:36;;;;;;;31.02;19.63;;;;;;;9.37;73.64;100312.53;2622208;54;20031;-69
2021/11/18 10:44:20;;;;;;;35.78;19.35;;;;;;;9.34;73.02;100315.44;2625426;54;20035;-68
2021/11/18 10:47:01;;;;;;;30.98;18.90;;;;;;;9.17;72.19;100306.53;2625395;54;20042;-69
2021/11/18 10:49:36;;;;;;;31.90;19.00;;;;;;;9.13;72.75;100307.78;2625351;54;20042;-69
2021/11/18 10:52:08;;;;;;;30.88;18.48;;;;;;;9.15;73.04;100308.50;2625295;54;20035;-69
2021/11/18 10:54:44;;;;;;;33.03;19.08;;;;;;;9.34;73.35;100315.44;2623878;51;20034;-68
2021/11/18 10:57:20;;;;;;;35.55;19.58;;;;;;;9.39;72.94;100310.59;2623837;51;20030;-69
2021/11/18 10:59:54;;;;;;;36.95;25.05;;;;;;;9.40;72.63;100304.31;2623116;50;20073;-69
2021/11/18 11:02:32;;;;;;;36.75;24.08;;;;;;;9.48;72.59;100302.75;2619669;54;20038;-69
2021/11/18 11:05:06;;;;;;;33.30;20.48;;;;;;;9.45;72.92;100301.22;2619260;54;20056;-69
2021/11/18 11:07:39;;;;;;;29.33;18.48;;;;;;;9.48;72.30;100302.75;2623744;54;20118;-70
2021/11/18 11:10:13;;;;;;;24.73;16.83;;;;;;;9.48;70.90;100305.41;2622849;54;20086;-69
2021/11/18 11:12:50;;;;;;;30.80;16.70;;;;;;;9.41;70.33;100300.69;2621597;54;20092;-69
2021/11/18 11:15:32;;;;;;;32.42;18.00;;;;;;;9.39;70.04;100286.84;2621305;54;20066;-70
2021/11/18 11:18:25;;;;;;;29.90;18.20;;;;;;;9.44;70.09;100302.22;2620897;47;20027;-67
2021/11/18 11:21:10;;;;;;;28.98;17.10;;;;;;;9.38;69.88;100308.06;2620053;54;20038;-69
2021/11/18 11:24:10;;;;;;;26.52;16.63;;;;;;;9.37;69.43;100307.25;2619959;54;20053;-68
2021/11/18 11:27:29;;;;;;;26.45;16.92;;;;;;;9.24;69.29;100309.41;2620186;54;20046;-68
2021/11/18 11:30:00;;;;;;;28.27;18.85;;;;;;;9.21;69.38;100311.50;2621565;39;20718;-68
2021/11/18 11:32:42;;;;;;;24.63;14.05;;;;;;;9.17;68.98;100305.69;2621803;54;20026;-68
2021/11/18 11:35:26;;;;;;;27.63;16.83;;;;;;;9.13;69.17;100309.59;2621399;54;20031;-69
2021/11/18 11:38:11;;;;;;;;;;;;;;;9.08;68.64;100306.56;2620731;54;20030;-67
2021/11/18 11:40:53;;;;;;;23.52;14.05;;;;;;;9.08;68.93;100314.50;2620020;54;19945;-66
2021/11/18 11:43:39;;;;;;;23.40;14.95;;;;;;;8.98;68.82;100311.91;2623684;39;20689;-70
2021/11/18 11:46:25;;;;;;;31.00;15.68;;;;;;;8.93;68.69;100317.59;2622539;54;20030;-66
2021/11/18 11:49:07;;;;;;;27.25;16.95;;;;;;;8.94;69.28;100315.81;2621556;54;20034;-69
2021/11/18 11:52:00;;;;;;;30.30;14.93;;;;;;;9.00;69.36;100303.84;2621003;54;20038;-67
2021/11/18 11:55:08;;;;;;;27.13;15.02;;;;;;;9.10;68.82;100315.16;2621170;54;20026;-68
2021/11/18 11:57:45;;;;;;;20.17;13.32;;;;;;;9.11;68.54;100311.56;2619519;39;20482;-68
2021/11/18 12:00:22;;;;;;;27.13;12.23;;;;;;;9.09;68.72;100305.59;2619118;54;20026;-68
2021/11/18 12:02:59;;;;;;;24.80;13.43;;;;;;;9.28;68.82;100302.03;2618655;54;20034;-68
2021/11/18 12:05:35;;;;;;;20.98;13.50;;;;;;;9.54;67.94;100302.97;2619142;54;20529;-69
2021/11/18 12:08:11;;;;;;;22.95;11.98;;;;;;;9.68;67.82;100304.28;2619454;54;20035;-68
2021/11/18 12:10:47;;;;;;;24.40;13.65;;;;;;;9.73;67.23;100291.44;2619353;54;20037;-68
2021/11/18 12:13:27;;;;;;;24.08;12.80;;;;;;;9.72;66.84;100296.91;2619184;54;20558;-68
2021/11/18 12:16:01;;;;;;;19.02;12.57;;;;;;;9.69;66.00;100292.72;2619608;54;20031;-68
2021/11/18 12:18:56;;;;;;;24.35;16.67;;;;;;;9.75;66.11;100286.00;2618878;54;20031;-69
2021/11/18 12:21:27;;;;;;;23.80;12.60;;;;;;;9.89;65.83;100274.94;2618990;54;20030;-69
2021/11/18 12:24:10;;;;;;;20.63;12.77;;;;;;;10.08;65.79;100274.75;2618737;54;20038;-69
2021/11/18 12:26:57;;;;;;;23.90;14.30;;;;;;;10.20;64.67;100272.66;2619024;54;20031;-69
2021/11/18 12:29:36;;;;;;;19.75;11.30;;;;;;;10.18;64.63;100262.28;2618961;54;20030;-69
2021/11/18 12:32:25;;;;;;;19.65;11.15;;;;;;;10.34;64.66;100251.00;2618718;54;20038;-69
2021/11/18 12:35:00;;;;;;;22.10;11.25;;;;;;;10.45;63.69;100257.00;2618787;54;20041;-70
2021/11/18 12:37:34;;;;;;;16.40;9.98;;;;;;;10.39;63.66;100256.66;2618397;54;20034;-68
2021/11/18 12:40:20;;;;;;;14.73;8.80;;;;;;;10.27;63.32;100257.91;2619035;54;20037;-67